sensor_id;sensor_type;location;lat;lon;timestamp;temperature;humidity
46720;DHT22;32452;51.382;-0.002;2022-08-04T00:05:44;22.10;71.70
46720;DHT22;32452;51.382;-0.002;2022-08-04T00:11:25;22.10;70.90
46720;DHT22;32452;51.382;-0.002;2022-08-04T00:14:15;22.00;70.50
46720;DHT22;32452;51.382;-0.002;2022-08-04T00:17:07;22.10;70.20
46720;DHT22;32452;51.382;-0.002;2022-08-04T00:20:02;22.10;70.00
46720;DHT22;32452;51.382;-0.002;2022-08-04T00:22:51;22.10;69.70
46720;DHT22;32452;51.382;-0.002;2022-08-04T00:25:39;22.10;69.30
46720;DHT22;32452;51.382;-0.002;2022-08-04T00:28:27;22.10;68.90
46720;DHT22;32452;51.382;-0.002;2022-08-04T00:31:14;22.10;68.30
46720;DHT22;32452;51.382;-0.002;2022-08-04T00:34:00;22.10;67.70
46720;DHT22;32452;51.382;-0.002;2022-08-04T00:36:46;22.00;67.30
46720;DHT22;32452;51.382;-0.002;2022-08-04T00:39:32;22.10;66.90
46720;DHT22;32452;51.382;-0.002;2022-08-04T00:42:31;22.00;66.40
46720;DHT22;32452;51.382;-0.002;2022-08-04T00:45:43;22.00;66.10
46720;DHT22;32452;51.382;-0.002;2022-08-04T00:52:22;22.00;65.50
46720;DHT22;32452;51.382;-0.002;2022-08-04T00:59:07;21.90;65.10
46720;DHT22;32452;51.382;-0.002;2022-08-04T01:02:06;21.90;64.90
46720;DHT22;32452;51.382;-0.002;2022-08-04T01:05:33;21.90;64.80
46720;DHT22;32452;51.382;-0.002;2022-08-04T01:11:45;21.80;64.40
46720;DHT22;32452;51.382;-0.002;2022-08-04T01:15:08;21.80;64.10
46720;DHT22;32452;51.382;-0.002;2022-08-04T01:21:13;21.80;64.00
46720;DHT22;32452;51.382;-0.002;2022-08-04T01:24:23;21.80;63.70
46720;DHT22;32452;51.382;-0.002;2022-08-04T01:30:17;21.70;63.60
46720;DHT22;32452;51.382;-0.002;2022-08-04T01:33:07;21.60;63.60
46720;DHT22;32452;51.382;-0.002;2022-08-04T01:36:00;21.60;63.60
46720;DHT22;32452;51.382;-0.002;2022-08-04T01:38:48;21.50;64.30
46720;DHT22;32452;51.382;-0.002;2022-08-04T01:41:34;21.50;63.60
46720;DHT22;32452;51.382;-0.002;2022-08-04T01:44:20;21.50;63.60
46720;DHT22;32452;51.382;-0.002;2022-08-04T01:47:08;21.50;63.60
46720;DHT22;32452;51.382;-0.002;2022-08-04T01:50:04;21.50;63.60
46720;DHT22;32452;51.382;-0.002;2022-08-04T01:52:53;21.50;63.60
46720;DHT22;32452;51.382;-0.002;2022-08-04T01:55:38;21.50;63.80
46720;DHT22;32452;51.382;-0.002;2022-08-04T01:58:40;21.50;64.10
46720;DHT22;32452;51.382;-0.002;2022-08-04T02:01:25;21.50;64.30
46720;DHT22;32452;51.382;-0.002;2022-08-04T02:04:18;21.50;64.60
46720;DHT22;32452;51.382;-0.002;2022-08-04T02:10:07;21.40;64.60
46720;DHT22;32452;51.382;-0.002;2022-08-04T02:19:34;21.40;64.60
46720;DHT22;32452;51.382;-0.002;2022-08-04T02:22:21;21.40;64.60
46720;DHT22;32452;51.382;-0.002;2022-08-04T02:25:10;21.40;64.50
46720;DHT22;32452;51.382;-0.002;2022-08-04T02:34:12;21.30;64.30
46720;DHT22;32452;51.382;-0.002;2022-08-04T02:37:03;21.30;64.30
46720;DHT22;32452;51.382;-0.002;2022-08-04T02:39:52;21.30;64.20
46720;DHT22;32452;51.382;-0.002;2022-08-04T02:42:38;21.30;64.00
46720;DHT22;32452;51.382;-0.002;2022-08-04T02:45:24;21.30;63.90
46720;DHT22;32452;51.382;-0.002;2022-08-04T02:48:13;21.30;63.70
46720;DHT22;32452;51.382;-0.002;2022-08-04T02:51:18;21.30;63.60
46720;DHT22;32452;51.382;-0.002;2022-08-04T02:54:06;21.20;63.30
46720;DHT22;32452;51.382;-0.002;2022-08-04T02:56:51;21.20;63.00
46720;DHT22;32452;51.382;-0.002;2022-08-04T03:06:27;21.20;62.10
46720;DHT22;32452;51.382;-0.002;2022-08-04T03:09:39;21.10;61.80
46720;DHT22;32452;51.382;-0.002;2022-08-04T03:28:22;20.80;61.30
46720;DHT22;32452;51.382;-0.002;2022-08-04T03:56:43;20.60;61.80
46720;DHT22;32452;51.382;-0.002;2022-08-04T04:05:37;20.50;62.20
46720;DHT22;32452;51.382;-0.002;2022-08-04T04:08:58;20.40;62.40
46720;DHT22;32452;51.382;-0.002;2022-08-04T04:21:26;20.20;63.20
46720;DHT22;32452;51.382;-0.002;2022-08-04T04:24:58;20.10;63.40
46720;DHT22;32452;51.382;-0.002;2022-08-04T04:31:32;20.00;64.10
46720;DHT22;32452;51.382;-0.002;2022-08-04T04:35:14;19.90;64.40
46720;DHT22;32452;51.382;-0.002;2022-08-04T04:38:26;19.80;64.70
46720;DHT22;32452;51.382;-0.002;2022-08-04T04:47:35;19.60;65.80
46720;DHT22;32452;51.382;-0.002;2022-08-04T04:54:18;19.60;66.60
46720;DHT22;32452;51.382;-0.002;2022-08-04T05:00:01;19.50;66.90
46720;DHT22;32452;51.382;-0.002;2022-08-04T05:03:10;19.50;66.90
46720;DHT22;32452;51.382;-0.002;2022-08-04T05:15:13;19.70;67.40
46720;DHT22;32452;51.382;-0.002;2022-08-04T05:18:02;19.70;67.40
46720;DHT22;32452;51.382;-0.002;2022-08-04T05:24:10;19.80;67.20
46720;DHT22;32452;51.382;-0.002;2022-08-04T05:27:01;19.80;67.10
46720;DHT22;32452;51.382;-0.002;2022-08-04T05:30:01;19.80;67.00
46720;DHT22;32452;51.382;-0.002;2022-08-04T05:33:00;19.80;66.90
46720;DHT22;32452;51.382;-0.002;2022-08-04T05:35:51;19.90;66.80
46720;DHT22;32452;51.382;-0.002;2022-08-04T05:38:59;19.90;66.80
46720;DHT22;32452;51.382;-0.002;2022-08-04T05:41:48;19.90;66.60
46720;DHT22;32452;51.382;-0.002;2022-08-04T05:44:43;19.90;66.60
46720;DHT22;32452;51.382;-0.002;2022-08-04T05:47:35;20.00;66.60
46720;DHT22;32452;51.382;-0.002;2022-08-04T05:50:22;20.00;66.60
46720;DHT22;32452;51.382;-0.002;2022-08-04T05:53:09;20.10;66.70
46720;DHT22;32452;51.382;-0.002;2022-08-04T05:55:56;20.10;66.80
46720;DHT22;32452;51.382;-0.002;2022-08-04T05:58:45;20.20;66.80
46720;DHT22;32452;51.382;-0.002;2022-08-04T06:01:32;20.30;66.90
46720;DHT22;32452;51.382;-0.002;2022-08-04T06:04:41;20.30;67.10
46720;DHT22;32452;51.382;-0.002;2022-08-04T06:07:27;20.40;67.20
46720;DHT22;32452;51.382;-0.002;2022-08-04T06:10:13;20.80;66.80
46720;DHT22;32452;51.382;-0.002;2022-08-04T06:13:03;21.30;65.50
46720;DHT22;32452;51.382;-0.002;2022-08-04T06:15:52;21.80;64.20
46720;DHT22;32452;51.382;-0.002;2022-08-04T06:18:42;22.50;62.80
46720;DHT22;32452;51.382;-0.002;2022-08-04T06:21:50;23.10;60.80
46720;DHT22;32452;51.382;-0.002;2022-08-04T06:24:37;23.70;59.40
46720;DHT22;32452;51.382;-0.002;2022-08-04T06:27:23;24.10;58.10
46720;DHT22;32452;51.382;-0.002;2022-08-04T06:30:09;24.50;57.70
46720;DHT22;32452;51.382;-0.002;2022-08-04T06:32:59;24.90;56.10
46720;DHT22;32452;51.382;-0.002;2022-08-04T06:35:51;25.30;55.30
46720;DHT22;32452;51.382;-0.002;2022-08-04T06:38:40;25.70;54.50
46720;DHT22;32452;51.382;-0.002;2022-08-04T06:41:28;26.30;53.30
46720;DHT22;32452;51.382;-0.002;2022-08-04T06:44:14;26.70;52.10
46720;DHT22;32452;51.382;-0.002;2022-08-04T06:47:00;26.90;51.30
46720;DHT22;32452;51.382;-0.002;2022-08-04T06:49:50;27.20;50.70
46720;DHT22;32452;51.382;-0.002;2022-08-04T06:52:56;27.60;50.70
46720;DHT22;32452;51.382;-0.002;2022-08-04T06:55:44;28.10;49.30
46720;DHT22;32452;51.382;-0.002;2022-08-04T06:58:30;28.40;48.20
46720;DHT22;32452;51.382;-0.002;2022-08-04T07:01:18;28.60;47.20
46720;DHT22;32452;51.382;-0.002;2022-08-04T07:04:05;28.70;46.60
46720;DHT22;32452;51.382;-0.002;2022-08-04T07:06:51;28.80;46.30
46720;DHT22;32452;51.382;-0.002;2022-08-04T07:09:38;28.90;45.70
46720;DHT22;32452;51.382;-0.002;2022-08-04T07:12:23;29.10;45.60
46720;DHT22;32452;51.382;-0.002;2022-08-04T07:15:10;29.40;45.10
46720;DHT22;32452;51.382;-0.002;2022-08-04T07:17:58;29.70;44.50
46720;DHT22;32452;51.382;-0.002;2022-08-04T07:20:47;30.00;43.90
46720;DHT22;32452;51.382;-0.002;2022-08-04T07:23:33;30.00;43.40
46720;DHT22;32452;51.382;-0.002;2022-08-04T07:26:19;30.10;43.30
46720;DHT22;32452;51.382;-0.002;2022-08-04T07:29:11;30.20;42.90
46720;DHT22;32452;51.382;-0.002;2022-08-04T07:31:57;30.40;42.50
46720;DHT22;32452;51.382;-0.002;2022-08-04T07:34:46;30.50;41.90
46720;DHT22;32452;51.382;-0.002;2022-08-04T07:37:34;30.40;42.10
46720;DHT22;32452;51.382;-0.002;2022-08-04T07:40:24;30.50;42.00
46720;DHT22;32452;51.382;-0.002;2022-08-04T07:43:09;30.80;41.70
46720;DHT22;32452;51.382;-0.002;2022-08-04T07:45:55;30.70;41.50
46720;DHT22;32452;51.382;-0.002;2022-08-04T07:48:41;30.70;41.30
46720;DHT22;32452;51.382;-0.002;2022-08-04T07:51:30;30.20;41.40
46720;DHT22;32452;51.382;-0.002;2022-08-04T07:54:16;30.00;41.60
46720;DHT22;32452;51.382;-0.002;2022-08-04T07:57:02;30.40;41.50
46720;DHT22;32452;51.382;-0.002;2022-08-04T07:59:54;30.70;40.70
46720;DHT22;32452;51.382;-0.002;2022-08-04T08:02:44;31.20;39.90
46720;DHT22;32452;51.382;-0.002;2022-08-04T08:05:33;31.50;39.70
46720;DHT22;32452;51.382;-0.002;2022-08-04T08:08:39;31.50;38.70
46720;DHT22;32452;51.382;-0.002;2022-08-04T08:11:24;31.40;38.70
46720;DHT22;32452;51.382;-0.002;2022-08-04T08:14:30;31.40;38.80
46720;DHT22;32452;51.382;-0.002;2022-08-04T08:17:16;31.40;38.60
46720;DHT22;32452;51.382;-0.002;2022-08-04T08:20:01;31.30;38.30
46720;DHT22;32452;51.382;-0.002;2022-08-04T08:22:47;31.20;38.20
46720;DHT22;32452;51.382;-0.002;2022-08-04T08:25:34;31.10;38.20
46720;DHT22;32452;51.382;-0.002;2022-08-04T08:28:19;31.00;38.20
46720;DHT22;32452;51.382;-0.002;2022-08-04T08:31:05;30.90;38.20
46720;DHT22;32452;51.382;-0.002;2022-08-04T08:33:51;30.90;38.20
46720;DHT22;32452;51.382;-0.002;2022-08-04T08:37:01;30.90;38.20
46720;DHT22;32452;51.382;-0.002;2022-08-04T08:39:57;30.70;38.30
46720;DHT22;32452;51.382;-0.002;2022-08-04T08:42:53;30.80;38.30
46720;DHT22;32452;51.382;-0.002;2022-08-04T08:46:16;30.90;37.90
46720;DHT22;32452;51.382;-0.002;2022-08-04T08:59:16;31.50;36.90
46720;DHT22;32452;51.382;-0.002;2022-08-04T09:05:52;31.90;36.10
46720;DHT22;32452;51.382;-0.002;2022-08-04T09:15:14;31.60;35.90
46720;DHT22;32452;51.382;-0.002;2022-08-04T09:18:17;31.80;35.60
46720;DHT22;32452;51.382;-0.002;2022-08-04T09:21:31;32.00;35.00
46720;DHT22;32452;51.382;-0.002;2022-08-04T09:24:28;31.90;35.10
46720;DHT22;32452;51.382;-0.002;2022-08-04T09:27:45;31.40;35.60
46720;DHT22;32452;51.382;-0.002;2022-08-04T09:34:09;31.10;35.60
46720;DHT22;32452;51.382;-0.002;2022-08-04T09:37:06;31.10;35.70
46720;DHT22;32452;51.382;-0.002;2022-08-04T09:40:05;31.60;35.30
46720;DHT22;32452;51.382;-0.002;2022-08-04T09:43:11;32.20;34.90
46720;DHT22;32452;51.382;-0.002;2022-08-04T09:49:06;32.20;33.40
46720;DHT22;32452;51.382;-0.002;2022-08-04T09:52:05;32.00;33.80
46720;DHT22;32452;51.382;-0.002;2022-08-04T09:55:01;31.80;33.90
46720;DHT22;32452;51.382;-0.002;2022-08-04T10:01:04;30.60;35.50
46720;DHT22;32452;51.382;-0.002;2022-08-04T10:04:02;30.90;35.80
46720;DHT22;32452;51.382;-0.002;2022-08-04T10:10:34;30.90;35.00
46720;DHT22;32452;51.382;-0.002;2022-08-04T10:13:46;30.80;35.00
46720;DHT22;32452;51.382;-0.002;2022-08-04T10:19:34;31.50;35.00
46720;DHT22;32452;51.382;-0.002;2022-08-04T10:22:30;32.10;34.10
46720;DHT22;32452;51.382;-0.002;2022-08-04T10:28:57;31.00;34.50
46720;DHT22;32452;51.382;-0.002;2022-08-04T10:31:47;30.90;34.60
46720;DHT22;32452;51.382;-0.002;2022-08-04T10:34:55;31.00;34.90
46720;DHT22;32452;51.382;-0.002;2022-08-04T10:41:03;31.20;34.80
46720;DHT22;32452;51.382;-0.002;2022-08-04T10:44:21;31.00;34.90
46720;DHT22;32452;51.382;-0.002;2022-08-04T10:47:15;30.50;35.70
46720;DHT22;32452;51.382;-0.002;2022-08-04T10:50:02;29.80;35.90
46720;DHT22;32452;51.382;-0.002;2022-08-04T10:53:14;29.40;36.30
46720;DHT22;32452;51.382;-0.002;2022-08-04T10:56:09;29.00;37.10
46720;DHT22;32452;51.382;-0.002;2022-08-04T10:59:03;28.60;37.70
46720;DHT22;32452;51.382;-0.002;2022-08-04T11:02:05;28.70;37.80
46720;DHT22;32452;51.382;-0.002;2022-08-04T11:05:02;29.30;37.10
46720;DHT22;32452;51.382;-0.002;2022-08-04T11:07:52;30.10;36.30
46720;DHT22;32452;51.382;-0.002;2022-08-04T11:10:50;30.90;35.50
46720;DHT22;32452;51.382;-0.002;2022-08-04T11:13:44;31.50;34.50
46720;DHT22;32452;51.382;-0.002;2022-08-04T11:16:45;31.50;34.10
46720;DHT22;32452;51.382;-0.002;2022-08-04T11:20:10;31.30;34.40
46720;DHT22;32452;51.382;-0.002;2022-08-04T11:23:17;31.50;33.90
46720;DHT22;32452;51.382;-0.002;2022-08-04T11:26:20;31.80;33.50
46720;DHT22;32452;51.382;-0.002;2022-08-04T11:29:21;31.60;32.90
46720;DHT22;32452;51.382;-0.002;2022-08-04T11:32:16;31.10;33.20
46720;DHT22;32452;51.382;-0.002;2022-08-04T11:35:06;30.70;33.50
46720;DHT22;32452;51.382;-0.002;2022-08-04T11:38:02;30.20;33.80
46720;DHT22;32452;51.382;-0.002;2022-08-04T11:40:53;29.80;34.40
46720;DHT22;32452;51.382;-0.002;2022-08-04T11:43:54;29.50;34.90
46720;DHT22;32452;51.382;-0.002;2022-08-04T11:46:50;29.40;35.30
46720;DHT22;32452;51.382;-0.002;2022-08-04T11:49:44;29.70;35.20
46720;DHT22;32452;51.382;-0.002;2022-08-04T11:52:43;30.00;34.80
46720;DHT22;32452;51.382;-0.002;2022-08-04T11:55:31;29.80;34.70
46720;DHT22;32452;51.382;-0.002;2022-08-04T11:58:38;29.50;35.00
46720;DHT22;32452;51.382;-0.002;2022-08-04T12:04:17;29.20;35.20
46720;DHT22;32452;51.382;-0.002;2022-08-04T12:07:48;29.40;35.20
46720;DHT22;32452;51.382;-0.002;2022-08-04T12:14:03;30.30;34.60
46720;DHT22;32452;51.382;-0.002;2022-08-04T12:17:02;30.80;34.50
46720;DHT22;32452;51.382;-0.002;2022-08-04T12:19:50;31.30;33.90
46720;DHT22;32452;51.382;-0.002;2022-08-04T12:22:50;31.60;33.10
46720;DHT22;32452;51.382;-0.002;2022-08-04T12:25:39;31.70;32.50
46720;DHT22;32452;51.382;-0.002;2022-08-04T12:28:36;31.60;32.30
46720;DHT22;32452;51.382;-0.002;2022-08-04T12:34:44;31.00;33.10
46720;DHT22;32452;51.382;-0.002;2022-08-04T12:40:25;31.10;32.80
46720;DHT22;32452;51.382;-0.002;2022-08-04T12:46:23;30.60;33.10
46720;DHT22;32452;51.382;-0.002;2022-08-04T12:49:11;30.20;33.30
46720;DHT22;32452;51.382;-0.002;2022-08-04T12:51:58;29.80;33.80
46720;DHT22;32452;51.382;-0.002;2022-08-04T12:54:53;29.60;34.50
46720;DHT22;32452;51.382;-0.002;2022-08-04T12:57:40;29.40;34.70
46720;DHT22;32452;51.382;-0.002;2022-08-04T13:00:33;29.10;34.90
46720;DHT22;32452;51.382;-0.002;2022-08-04T13:03:28;28.90;35.00
46720;DHT22;32452;51.382;-0.002;2022-08-04T13:06:15;29.00;35.20
46720;DHT22;32452;51.382;-0.002;2022-08-04T13:09:14;29.10;34.50
46720;DHT22;32452;51.382;-0.002;2022-08-04T13:12:10;29.20;34.20
46720;DHT22;32452;51.382;-0.002;2022-08-04T13:15:09;29.10;34.30
46720;DHT22;32452;51.382;-0.002;2022-08-04T13:18:04;29.10;34.20
46720;DHT22;32452;51.382;-0.002;2022-08-04T13:21:09;29.30;34.10
46720;DHT22;32452;51.382;-0.002;2022-08-04T13:24:10;29.50;33.80
46720;DHT22;32452;51.382;-0.002;2022-08-04T13:27:17;29.80;33.80
46720;DHT22;32452;51.382;-0.002;2022-08-04T13:30:04;30.00;33.40
46720;DHT22;32452;51.382;-0.002;2022-08-04T13:32:56;30.10;33.00
46720;DHT22;32452;51.382;-0.002;2022-08-04T13:35:44;30.20;32.80
46720;DHT22;32452;51.382;-0.002;2022-08-04T13:38:56;30.20;32.80
46720;DHT22;32452;51.382;-0.002;2022-08-04T13:41:50;30.20;33.10
46720;DHT22;32452;51.382;-0.002;2022-08-04T13:44:47;29.90;33.40
46720;DHT22;32452;51.382;-0.002;2022-08-04T13:47:37;29.70;34.00
46720;DHT22;32452;51.382;-0.002;2022-08-04T13:50:28;29.50;34.50
46720;DHT22;32452;51.382;-0.002;2022-08-04T13:53:17;29.40;34.90
46720;DHT22;32452;51.382;-0.002;2022-08-04T13:56:08;29.50;35.20
46720;DHT22;32452;51.382;-0.002;2022-08-04T13:58:59;29.70;35.20
46720;DHT22;32452;51.382;-0.002;2022-08-04T14:01:57;29.80;34.80
46720;DHT22;32452;51.382;-0.002;2022-08-04T14:04:50;29.70;34.60
46720;DHT22;32452;51.382;-0.002;2022-08-04T14:07:45;29.70;34.70
46720;DHT22;32452;51.382;-0.002;2022-08-04T14:10:32;29.80;35.50
46720;DHT22;32452;51.382;-0.002;2022-08-04T14:13:32;29.80;34.50
46720;DHT22;32452;51.382;-0.002;2022-08-04T14:16:26;29.60;34.50
46720;DHT22;32452;51.382;-0.002;2022-08-04T14:19:12;29.50;34.80
46720;DHT22;32452;51.382;-0.002;2022-08-04T14:21:58;29.30;34.90
46720;DHT22;32452;51.382;-0.002;2022-08-04T14:24:58;29.30;35.10
46720;DHT22;32452;51.382;-0.002;2022-08-04T14:30:32;29.10;34.70
46720;DHT22;32452;51.382;-0.002;2022-08-04T14:33:20;29.10;34.90
46720;DHT22;32452;51.382;-0.002;2022-08-04T14:36:50;29.20;34.80
46720;DHT22;32452;51.382;-0.002;2022-08-04T14:39:55;29.10;34.60
46720;DHT22;32452;51.382;-0.002;2022-08-04T14:43:01;29.10;34.80
46720;DHT22;32452;51.382;-0.002;2022-08-04T14:46:03;28.90;34.80
46720;DHT22;32452;51.382;-0.002;2022-08-04T14:49:00;28.80;35.10
46720;DHT22;32452;51.382;-0.002;2022-08-04T14:51:52;28.60;35.10
46720;DHT22;32452;51.382;-0.002;2022-08-04T14:54:37;28.60;35.30
46720;DHT22;32452;51.382;-0.002;2022-08-04T14:57:23;28.50;35.30
46720;DHT22;32452;51.382;-0.002;2022-08-04T15:00:09;28.50;35.30
46720;DHT22;32452;51.382;-0.002;2022-08-04T15:03:07;28.40;35.10
46720;DHT22;32452;51.382;-0.002;2022-08-04T15:05:56;28.50;35.10
46720;DHT22;32452;51.382;-0.002;2022-08-04T15:08:53;28.50;34.90
46720;DHT22;32452;51.382;-0.002;2022-08-04T15:11:38;28.50;35.00
46720;DHT22;32452;51.382;-0.002;2022-08-04T15:14:28;28.40;35.20
46720;DHT22;32452;51.382;-0.002;2022-08-04T15:17:22;28.40;35.40
46720;DHT22;32452;51.382;-0.002;2022-08-04T15:20:17;28.40;35.60
46720;DHT22;32452;51.382;-0.002;2022-08-04T15:23:08;28.30;35.50
46720;DHT22;32452;51.382;-0.002;2022-08-04T15:26:01;28.20;36.30
46720;DHT22;32452;51.382;-0.002;2022-08-04T15:28:50;28.00;35.50
46720;DHT22;32452;51.382;-0.002;2022-08-04T15:31:42;27.90;35.60
46720;DHT22;32452;51.382;-0.002;2022-08-04T15:35:04;27.80;35.60
46720;DHT22;32452;51.382;-0.002;2022-08-04T15:38:10;27.70;35.70
46720;DHT22;32452;51.382;-0.002;2022-08-04T15:41:05;27.70;35.80
46720;DHT22;32452;51.382;-0.002;2022-08-04T15:44:35;27.60;35.70
46720;DHT22;32452;51.382;-0.002;2022-08-04T15:47:31;27.60;35.70
46720;DHT22;32452;51.382;-0.002;2022-08-04T15:50:17;27.40;35.90
46720;DHT22;32452;51.382;-0.002;2022-08-04T15:53:15;27.30;36.00
46720;DHT22;32452;51.382;-0.002;2022-08-04T15:59:54;27.20;36.40
46720;DHT22;32452;51.382;-0.002;2022-08-04T16:06:44;27.20;36.90
46720;DHT22;32452;51.382;-0.002;2022-08-04T16:09:36;27.20;37.00
46720;DHT22;32452;51.382;-0.002;2022-08-04T16:12:58;27.20;37.10
46720;DHT22;32452;51.382;-0.002;2022-08-04T16:22:32;27.10;37.10
46720;DHT22;32452;51.382;-0.002;2022-08-04T16:25:41;27.10;37.30
46720;DHT22;32452;51.382;-0.002;2022-08-04T16:29:25;27.00;37.40
46720;DHT22;32452;51.382;-0.002;2022-08-04T16:35:01;26.90;38.30
46720;DHT22;32452;51.382;-0.002;2022-08-04T16:37:52;26.90;37.70
46720;DHT22;32452;51.382;-0.002;2022-08-04T16:40:38;26.80;37.50
46720;DHT22;32452;51.382;-0.002;2022-08-04T16:43:30;26.80;37.70
46720;DHT22;32452;51.382;-0.002;2022-08-04T16:46:39;26.80;38.00
46720;DHT22;32452;51.382;-0.002;2022-08-04T16:49:46;26.70;38.10
46720;DHT22;32452;51.382;-0.002;2022-08-04T16:52:47;26.60;38.10
46720;DHT22;32452;51.382;-0.002;2022-08-04T16:55:34;26.60;38.10
46720;DHT22;32452;51.382;-0.002;2022-08-04T16:58:28;26.50;38.20
46720;DHT22;32452;51.382;-0.002;2022-08-04T17:01:17;26.50;38.30
46720;DHT22;32452;51.382;-0.002;2022-08-04T17:04:17;26.50;38.30
46720;DHT22;32452;51.382;-0.002;2022-08-04T17:07:04;26.50;38.20
46720;DHT22;32452;51.382;-0.002;2022-08-04T17:09:51;26.50;38.30
46720;DHT22;32452;51.382;-0.002;2022-08-04T17:12:36;26.40;38.20
46720;DHT22;32452;51.382;-0.002;2022-08-04T17:15:23;26.40;38.40
46720;DHT22;32452;51.382;-0.002;2022-08-04T17:18:14;26.30;38.50
46720;DHT22;32452;51.382;-0.002;2022-08-04T17:21:14;26.20;38.40
46720;DHT22;32452;51.382;-0.002;2022-08-04T17:24:01;26.20;38.50
46720;DHT22;32452;51.382;-0.002;2022-08-04T17:27:02;26.10;38.60
46720;DHT22;32452;51.382;-0.002;2022-08-04T17:30:25;26.10;38.70
46720;DHT22;32452;51.382;-0.002;2022-08-04T17:33:12;26.00;38.50
46720;DHT22;32452;51.382;-0.002;2022-08-04T17:36:02;26.00;38.50
46720;DHT22;32452;51.382;-0.002;2022-08-04T17:38:51;25.90;38.50
46720;DHT22;32452;51.382;-0.002;2022-08-04T17:41:41;25.80;38.50
46720;DHT22;32452;51.382;-0.002;2022-08-04T17:44:37;25.80;38.50
46720;DHT22;32452;51.382;-0.002;2022-08-04T17:47:23;25.70;38.50
46720;DHT22;32452;51.382;-0.002;2022-08-04T17:50:09;25.70;38.60
46720;DHT22;32452;51.382;-0.002;2022-08-04T17:53:14;25.60;38.50
46720;DHT22;32452;51.382;-0.002;2022-08-04T17:56:06;25.60;38.60
46720;DHT22;32452;51.382;-0.002;2022-08-04T17:59:20;25.60;38.70
46720;DHT22;32452;51.382;-0.002;2022-08-04T18:02:31;25.50;38.70
46720;DHT22;32452;51.382;-0.002;2022-08-04T18:05:27;25.50;38.60
46720;DHT22;32452;51.382;-0.002;2022-08-04T18:08:34;25.40;38.30
46720;DHT22;32452;51.382;-0.002;2022-08-04T18:11:34;25.30;38.40
46720;DHT22;32452;51.382;-0.002;2022-08-04T18:14:37;25.30;38.40
46720;DHT22;32452;51.382;-0.002;2022-08-04T18:17:33;25.20;38.50
46720;DHT22;32452;51.382;-0.002;2022-08-04T18:20:39;25.20;38.70
46720;DHT22;32452;51.382;-0.002;2022-08-04T18:23:25;25.10;38.60
46720;DHT22;32452;51.382;-0.002;2022-08-04T18:26:17;25.10;38.70
46720;DHT22;32452;51.382;-0.002;2022-08-04T18:29:08;25.00;38.60
46720;DHT22;32452;51.382;-0.002;2022-08-04T18:32:13;25.00;38.70
46720;DHT22;32452;51.382;-0.002;2022-08-04T18:35:04;24.90;38.70
46720;DHT22;32452;51.382;-0.002;2022-08-04T18:37:54;24.90;38.70
46720;DHT22;32452;51.382;-0.002;2022-08-04T18:40:52;24.80;38.70
46720;DHT22;32452;51.382;-0.002;2022-08-04T18:43:57;24.80;38.70
46720;DHT22;32452;51.382;-0.002;2022-08-04T18:46:43;24.70;38.60
46720;DHT22;32452;51.382;-0.002;2022-08-04T18:49:40;24.60;38.60
46720;DHT22;32452;51.382;-0.002;2022-08-04T18:52:45;24.50;38.70
46720;DHT22;32452;51.382;-0.002;2022-08-04T18:55:37;24.40;38.70
46720;DHT22;32452;51.382;-0.002;2022-08-04T18:58:42;24.40;38.80
46720;DHT22;32452;51.382;-0.002;2022-08-04T19:01:30;24.30;38.80
46720;DHT22;32452;51.382;-0.002;2022-08-04T19:04:36;24.30;38.90
46720;DHT22;32452;51.382;-0.002;2022-08-04T19:07:22;24.20;39.00
46720;DHT22;32452;51.382;-0.002;2022-08-04T19:10:27;24.20;39.00
46720;DHT22;32452;51.382;-0.002;2022-08-04T19:13:13;24.10;39.00
46720;DHT22;32452;51.382;-0.002;2022-08-04T19:16:11;24.10;39.00
46720;DHT22;32452;51.382;-0.002;2022-08-04T19:19:05;24.00;39.00
46720;DHT22;32452;51.382;-0.002;2022-08-04T19:21:51;24.00;39.00
46720;DHT22;32452;51.382;-0.002;2022-08-04T19:24:46;24.00;39.20
46720;DHT22;32452;51.382;-0.002;2022-08-04T19:27:33;23.90;39.20
46720;DHT22;32452;51.382;-0.002;2022-08-04T19:30:24;23.80;39.10
46720;DHT22;32452;51.382;-0.002;2022-08-04T19:33:10;23.80;39.00
46720;DHT22;32452;51.382;-0.002;2022-08-04T19:35:55;23.70;38.80
46720;DHT22;32452;51.382;-0.002;2022-08-04T19:38:41;23.60;38.80
46720;DHT22;32452;51.382;-0.002;2022-08-04T19:41:28;23.60;38.80
46720;DHT22;32452;51.382;-0.002;2022-08-04T19:44:36;23.50;38.90
46720;DHT22;32452;51.382;-0.002;2022-08-04T19:47:29;23.50;38.90
46720;DHT22;32452;51.382;-0.002;2022-08-04T19:50:35;23.40;38.80
46720;DHT22;32452;51.382;-0.002;2022-08-04T19:53:26;23.40;38.90
46720;DHT22;32452;51.382;-0.002;2022-08-04T19:56:22;23.30;38.90
46720;DHT22;32452;51.382;-0.002;2022-08-04T19:59:10;23.30;39.00
46720;DHT22;32452;51.382;-0.002;2022-08-04T20:01:55;23.20;39.70
46720;DHT22;32452;51.382;-0.002;2022-08-04T20:04:41;23.20;39.10
46720;DHT22;32452;51.382;-0.002;2022-08-04T20:07:27;23.10;39.10
46720;DHT22;32452;51.382;-0.002;2022-08-04T20:10:15;23.10;39.20
46720;DHT22;32452;51.382;-0.002;2022-08-04T20:13:08;23.00;39.20
46720;DHT22;32452;51.382;-0.002;2022-08-04T20:15:55;23.00;39.30
46720;DHT22;32452;51.382;-0.002;2022-08-04T20:18:44;23.00;39.40
46720;DHT22;32452;51.382;-0.002;2022-08-04T20:21:44;23.00;39.50
46720;DHT22;32452;51.382;-0.002;2022-08-04T20:24:40;22.90;39.40
46720;DHT22;32452;51.382;-0.002;2022-08-04T20:27:39;22.90;39.80
46720;DHT22;32452;51.382;-0.002;2022-08-04T20:30:44;22.80;39.50
46720;DHT22;32452;51.382;-0.002;2022-08-04T20:33:33;22.80;39.50
46720;DHT22;32452;51.382;-0.002;2022-08-04T20:36:21;22.80;39.50
46720;DHT22;32452;51.382;-0.002;2022-08-04T20:39:07;22.80;39.50
46720;DHT22;32452;51.382;-0.002;2022-08-04T20:41:54;22.70;39.50
46720;DHT22;32452;51.382;-0.002;2022-08-04T20:44:40;22.70;39.50
46720;DHT22;32452;51.382;-0.002;2022-08-04T20:47:31;22.60;39.40
46720;DHT22;32452;51.382;-0.002;2022-08-04T20:50:20;22.60;39.40
46720;DHT22;32452;51.382;-0.002;2022-08-04T20:53:14;22.60;39.70
46720;DHT22;32452;51.382;-0.002;2022-08-04T20:56:01;22.60;39.80
46720;DHT22;32452;51.382;-0.002;2022-08-04T20:58:51;22.60;40.00
46720;DHT22;32452;51.382;-0.002;2022-08-04T21:01:37;22.60;40.80
46720;DHT22;32452;51.382;-0.002;2022-08-04T21:04:22;22.60;40.20
46720;DHT22;32452;51.382;-0.002;2022-08-04T21:07:20;22.50;40.40
46720;DHT22;32452;51.382;-0.002;2022-08-04T21:10:07;22.50;40.50
46720;DHT22;32452;51.382;-0.002;2022-08-04T21:12:53;22.50;40.60
46720;DHT22;32452;51.382;-0.002;2022-08-04T21:15:39;22.40;40.60
46720;DHT22;32452;51.382;-0.002;2022-08-04T21:18:43;22.40;40.80
46720;DHT22;32452;51.382;-0.002;2022-08-04T21:21:30;22.40;40.80
46720;DHT22;32452;51.382;-0.002;2022-08-04T21:24:21;22.30;40.80
46720;DHT22;32452;51.382;-0.002;2022-08-04T21:27:10;22.30;40.90
46720;DHT22;32452;51.382;-0.002;2022-08-04T21:29:56;22.20;40.90
46720;DHT22;32452;51.382;-0.002;2022-08-04T21:33:03;22.20;40.90
46720;DHT22;32452;51.382;-0.002;2022-08-04T21:35:50;22.20;41.00